Allendale, NJ

2:38 AM EDT on July 08, 2015 (GMT -0400)
urban | | Change Station
CLOSE
Current Station
Personal Weather Station
Location: Allendale, NJ
Elevation: 377 ft
Nearby Weather Stations

Elev 377 ft 41.04 °N, 74.15 °W | Updated 10 minutes ago

Clear
Clear
71.6 °F
Feels Like 71.6 °F
N
0.0
Wind Variable Wind from ESE

Today
High -- | Low -- °F
--% Chance of Precip.
Yesterday
High -- | Low -- °F
Precip. -- in
5:31 AM 8:30 PM
Waning Gibbous, 57% visible
Pressure 29.95 in
Visibility 8.0 miles
Clouds Clear
Dew Point 70 °F
Humidity 93%
Rainfall 0.00 in
Snow Depth Not available.
UV 0 out of 12
Pollen 1.50 out of 12
Air Quality Not available.
Flu Activity Not available.
METAR KCDW 080553Z AUTO 23003KT 8SM CLR 24/20 A2994 RMK AO2 SLP141 T02440200 10289 20244 58012 TSNO

More Conditions Fewer Conditions

Pressure 29.95 in
Visibility 8.0 miles
Clouds Clear
Dew Point 70 °F
Humidity 93%
Rainfall 0.00 in
Snow Depth Not available.
UV 0 out of 12
Pollen 1.50 out of 12
Air Quality Not available.
Flu Activity Not available.
METAR KCDW 080553Z AUTO 23003KT 8SM CLR 24/20 A2994 RMK AO2 SLP141 T02440200 10289 20244 58012 TSNO

More Conditions Fewer Conditions

10-Day Weather Forecast

×

Almanac

Astronomy

Jul. 08, 2015 Rise Set
Actual Time
Civil Twilight
Nautical Twilight
Astronomical Twilight
Moon
Length of Visible Light
Length of Day
Tomorrow will be .
, % of the Moon is Illuminated

Today's Extremes

State Highs State Lows

Community

WunderPhotos

Upload Photos

1,836,064 photos uploaded!

WunderBlogs® & News

Nearby

Air Quality

  Air Quality AQ Index Pollutant
Not available.

Snow Depth

Station Depth Elevation

Earthquake Activity

City Distance Mag. Time & Date
Minimum magnitude displayed is 2.5.

Coastal Water Temperatures

Place Temperature

Stations

Nearby Weather Stations

Station Location Temp. Windchill Dew Point Humidity Wind Precip. Elev Updated Type